Time;durP1;ratioP1;P1;durP2;ratioP2;P2;SDS_P1;SDS_P2;PMS_P1;PMS_P2;Temp;Humidity;BMP_temperature;BMP_pressure;BME280_temperature;BME280_humidity;BME280_pressure;Samples;Min_cycle;Max_cycle;Signal;HPM_P1;HPM_P2
2021/05/21 00:01:15;;;;;;;5.97;5.33;;;12.70;99.90;;;;;;5016222;28;20538;-68
2021/05/21 00:03:41;;;;;;;6.90;6.30;;;12.70;99.90;;;;;;5034248;28;20182;-69
2021/05/21 00:06:09;;;;;;;5.80;5.13;;;12.70;99.90;;;;;;5034273;28;20492;-69
2021/05/21 00:08:34;;;;;;;5.70;5.17;;;12.70;99.90;;;;;;5016389;28;20190;-69
2021/05/21 00:11:01;;;;;;;5.97;5.37;;;12.70;99.90;;;;;;5034272;28;20968;-69
2021/05/21 00:13:26;;;;;;;8.43;6.20;;;12.60;99.90;;;;;;5033998;28;20274;-69
2021/05/21 00:15:52;;;;;;;6.17;5.57;;;12.60;99.90;;;;;;5016243;28;20506;-67
2021/05/21 00:18:18;;;;;;;6.90;5.47;;;12.60;99.90;;;;;;5016179;28;20206;-69
2021/05/21 00:20:43;;;;;;;5.93;5.43;;;12.60;99.90;;;;;;5034001;28;20263;-68
2021/05/21 00:23:09;;;;;;;6.13;5.43;;;12.60;99.90;;;;;;5033804;28;20531;-69
2021/05/21 00:25:35;;;;;;;9.40;5.50;;;12.50;99.90;;;;;;5033929;28;20185;-68
2021/05/21 00:28:00;;;;;;;6.13;5.47;;;12.40;99.90;;;;;;5016153;28;20198;-69
2021/05/21 00:30:26;;;;;;;6.20;5.60;;;12.30;99.90;;;;;;5033738;28;20328;-67
2021/05/21 00:32:51;;;;;;;6.33;5.63;;;12.30;99.90;;;;;;5033855;28;20207;-69
2021/05/21 00:35:17;;;;;;;6.63;6.03;;;12.20;99.90;;;;;;5033718;28;20166;-69
2021/05/21 00:37:43;;;;;;;7.60;6.20;;;12.20;99.90;;;;;;5034110;28;20268;-69
2021/05/21 00:40:09;;;;;;;7.03;6.27;;;12.10;99.90;;;;;;5033673;28;20546;-70
2021/05/21 00:42:35;;;;;;;7.30;6.60;;;12.00;99.90;;;;;;5034037;28;20215;-67
2021/05/21 00:45:01;;;;;;;7.43;6.40;;;12.00;99.90;;;;;;5033650;28;20412;-70
2021/05/21 00:47:27;;;;;;;9.98;6.85;;;12.00;99.90;;;;;;5034082;28;20193;-67
2021/05/21 00:49:53;;;;;;;8.63;6.70;;;12.00;99.90;;;;;;5015887;28;20183;-69
2021/05/21 00:52:21;;;;;;;6.67;5.97;;;11.90;99.90;;;;;;5033817;28;20988;-68
2021/05/21 00:54:47;;;;;;;6.63;6.03;;;11.90;99.90;;;;;;5015857;28;20594;-69
2021/05/21 00:57:13;;;;;;;8.03;7.20;;;11.80;99.90;;;;;;5033828;28;20443;-70
2021/05/21 00:59:40;;;;;;;7.10;6.10;;;11.80;99.90;;;;;;5033489;28;20399;-69
2021/05/21 01:02:07;;;;;;;7.47;6.65;;;11.80;99.90;;;;;;5033663;28;20292;-68
2021/05/21 01:04:34;;;;;;;7.90;6.93;;;11.70;99.90;;;;;;5015704;28;20194;-68
2021/05/21 01:07:01;;;;;;;7.90;7.10;;;11.70;99.90;;;;;;5036395;28;20269;-68
2021/05/21 01:09:27;;;;;;;8.20;6.50;;;11.60;99.90;;;;;;5037341;28;20242;-68
2021/05/21 01:11:52;;;;;;;7.50;6.80;;;11.50;99.90;;;;;;5019705;28;20285;-67
2021/05/21 01:14:18;;;;;;;8.67;7.00;;;11.50;99.90;;;;;;5037354;28;20186;-68
2021/05/21 01:16:44;;;;;;;8.07;7.27;;;11.40;99.90;;;;;;5037611;28;20199;-67
2021/05/21 01:19:09;;;;;;;7.90;7.10;;;11.40;99.90;;;;;;5037261;28;20175;-69
2021/05/21 01:21:35;;;;;;;9.17;8.23;;;11.30;99.90;;;;;;5019382;28;20564;-69
2021/05/21 01:24:06;;;;;;;8.02;6.72;;;11.30;99.90;;;;;;5019428;28;20184;-69
2021/05/21 01:26:31;;;;;;;9.15;7.07;;;11.30;99.90;;;;;;5037317;28;20195;-68
2021/05/21 01:28:57;;;;;;;8.53;7.73;;;11.20;99.90;;;;;;5019236;28;20224;-67
2021/05/21 01:31:23;;;;;;;9.00;6.93;;;11.20;99.90;;;;;;5037180;28;20431;-67
2021/05/21 01:33:49;;;;;;;8.30;7.43;;;11.20;99.90;;;;;;5037036;28;20182;-68
2021/05/21 01:36:15;;;;;;;8.77;7.70;;;11.20;99.90;;;;;;5035663;28;20964;-68
2021/05/21 01:39:05;;;;;;;8.50;7.03;;;11.20;99.90;;;;;;5036945;28;20174;-68
2021/05/21 01:41:31;;;;;;;10.18;9.07;;;11.10;99.90;;;;;;5037050;28;20222;-67
2021/05/21 01:43:56;;;;;;;7.77;6.97;;;11.10;99.90;;;;;;5036874;28;20170;-69
2021/05/21 01:46:23;;;;;;;8.90;8.00;;;11.00;99.90;;;;;;5036942;28;20170;-69
2021/05/21 01:48:49;;;;;;;9.95;8.80;;;11.00;99.90;;;;;;5035522;28;20270;-70
2021/05/21 01:51:14;;;;;;;8.93;8.10;;;11.20;99.90;;;;;;5018996;28;20221;-67
2021/05/21 01:53:41;;;;;;;8.50;7.70;;;11.10;99.90;;;;;;5036724;28;20186;-68
2021/05/21 01:56:07;;;;;;;9.20;7.88;;;11.00;99.90;;;;;;5036703;28;20186;-68
2021/05/21 01:58:33;;;;;;;12.45;9.15;;;11.00;99.90;;;;;;5036571;28;20636;-68
2021/05/21 02:00:58;;;;;;;9.03;8.10;;;11.00;99.90;;;;;;5036533;28;20198;-67
2021/05/21 02:03:26;;;;;;;11.43;9.30;;;11.00;99.90;;;;;;5036394;28;20199;-67
2021/05/21 02:05:52;;;;;;;12.68;8.63;;;10.90;99.90;;;;;;5036612;28;20177;-68
2021/05/21 02:08:17;;;;;;;9.60;8.30;;;10.80;99.90;;;;;;5036344;28;20190;-67
2021/05/21 02:10:43;;;;;;;11.70;9.30;;;10.80;99.90;;;;;;5036232;28;20277;-70
2021/05/21 02:13:09;;;;;;;11.70;8.20;;;10.80;99.90;;;;;;5036229;28;20202;-69
2021/05/21 02:15:35;;;;;;;9.77;8.32;;;10.70;99.90;;;;;;5036163;28;20175;-68
2021/05/21 02:18:00;;;;;;;8.97;8.07;;;10.70;99.90;;;;;;5035215;28;20194;-68
2021/05/21 02:20:26;;;;;;;11.07;9.17;;;10.60;99.90;;;;;;5036040;28;20186;-67
2021/05/21 02:22:51;;;;;;;11.63;9.03;;;10.70;99.90;;;;;;5035984;28;20272;-67
2021/05/21 02:25:17;;;;;;;11.43;9.30;;;10.70;99.90;;;;;;5036037;28;20261;-68
2021/05/21 02:27:43;;;;;;;9.60;8.70;;;10.70;99.90;;;;;;5036482;28;20224;-69
2021/05/21 02:30:09;;;;;;;13.20;9.27;;;10.70;99.90;;;;;;5035959;28;20182;-68
2021/05/21 02:32:36;;;;;;;10.85;8.85;;;10.60;99.90;;;;;;5036447;28;20199;-70
2021/05/21 02:35:02;;;;;;;10.48;8.90;;;10.60;99.90;;;;;;5018098;28;20721;-67
2021/05/21 02:37:28;;;;;;;9.77;8.33;;;10.70;99.90;;;;;;5036251;28;20277;-70
2021/05/21 02:39:54;;;;;;;9.93;8.93;;;10.60;99.90;;;;;;5035831;28;20419;-69
2021/05/21 02:42:19;;;;;;;11.17;9.53;;;10.50;99.90;;;;;;5035965;28;20229;-68
2021/05/21 02:44:45;;;;;;;12.20;9.67;;;10.50;99.90;;;;;;5017955;28;20285;-69
2021/05/21 02:47:10;;;;;;;10.47;9.30;;;10.50;99.90;;;;;;5035936;28;20221;-68
2021/05/21 02:49:36;;;;;;;11.13;9.80;;;10.50;99.90;;;;;;5035567;28;20524;-70
2021/05/21 02:52:02;;;;;;;14.97;9.70;;;10.40;99.90;;;;;;5035733;28;20198;-68
2021/05/21 02:54:28;;;;;;;10.43;9.27;;;10.40;99.90;;;;;;5017734;28;20192;-67
2021/05/21 02:56:54;;;;;;;10.07;9.07;;;10.30;99.90;;;;;;5035768;28;20198;-67
2021/05/21 02:59:19;;;;;;;10.70;9.00;;;10.30;99.90;;;;;;5017638;28;20427;-69
2021/05/21 03:01:45;;;;;;;10.53;9.43;;;10.30;99.90;;;;;;5035755;28;20221;-68
2021/05/21 03:04:11;;;;;;;9.80;7.83;;;10.20;99.90;;;;;;5017543;28;20585;-68
2021/05/21 03:06:36;;;;;;;10.40;8.83;;;10.20;99.90;;;;;;5035444;28;20197;-66
2021/05/21 03:09:03;;;;;;;9.70;8.70;;;10.10;99.90;;;;;;5035132;28;20237;-67
2021/05/21 03:11:29;;;;;;;10.25;9.18;;;10.10;99.90;;;;;;5017414;28;20257;-69
2021/05/21 03:13:55;;;;;;;9.93;8.90;;;10.10;99.90;;;;;;5035117;28;20288;-67
2021/05/21 03:16:20;;;;;;;9.27;8.37;;;10.10;99.90;;;;;;5035156;28;20181;-68
2021/05/21 03:18:46;;;;;;;9.13;8.20;;;10.00;99.90;;;;;;5035057;28;20175;-69
2021/05/21 03:21:11;;;;;;;10.57;8.50;;;10.00;99.90;;;;;;5035009;28;20218;-68
2021/05/21 03:23:37;;;;;;;10.50;9.50;;;10.00;99.90;;;;;;5034944;28;20537;-68
2021/05/21 03:26:03;;;;;;;16.30;9.60;;;9.90;99.90;;;;;;5034841;28;20179;-69
2021/05/21 03:28:28;;;;;;;10.20;8.77;;;10.00;99.90;;;;;;5034766;28;20202;-68
2021/05/21 03:30:54;;;;;;;10.40;9.27;;;10.00;99.90;;;;;;5034760;28;20179;-68
2021/05/21 03:33:20;;;;;;;9.60;8.60;;;10.00;99.90;;;;;;5034653;28;20256;-68
2021/05/21 03:35:46;;;;;;;10.53;8.93;;;10.00;99.90;;;;;;5034760;28;20411;-67
2021/05/21 03:38:12;;;;;;;9.60;8.60;;;10.00;99.90;;;;;;5034577;28;20953;-68
2021/05/21 03:40:39;;;;;;;11.03;8.90;;;10.00;99.90;;;;;;5016842;28;20431;-68
2021/05/21 03:43:06;;;;;;;10.57;9.07;;;10.10;99.90;;;;;;5034566;28;20272;-67
2021/05/21 03:45:31;;;;;;;10.10;9.02;;;10.10;99.90;;;;;;5016856;28;20265;-69
2021/05/21 03:47:57;;;;;;;11.20;9.40;;;10.10;99.90;;;;;;5016808;28;20258;-67
2021/05/21 03:50:23;;;;;;;9.80;8.80;;;10.20;99.90;;;;;;5034373;28;20544;-69
2021/05/21 03:52:49;;;;;;;9.73;8.67;;;10.30;99.90;;;;;;5034311;28;20194;-69
2021/05/21 03:55:16;;;;;;;11.10;9.60;;;10.30;99.90;;;;;;5016573;28;20878;-69
2021/05/21 03:57:42;;;;;;;11.52;9.98;;;10.30;99.90;;;;;;5034669;28;20276;-67
2021/05/21 04:00:11;;;;;;;9.90;8.90;;;10.30;99.90;;;;;;5034279;28;20277;-67
2021/05/21 04:02:37;;;;;;;11.80;9.43;;;10.40;99.90;;;;;;5034470;28;20226;-67
2021/05/21 04:05:04;;;;;;;11.23;9.60;;;10.50;99.90;;;;;;5034208;28;20177;-68
2021/05/21 04:07:29;;;;;;;11.40;9.68;;;10.50;99.90;;;;;;5016363;28;20194;-67
2021/05/21 04:09:55;;;;;;;11.27;8.80;;;10.60;99.90;;;;;;5033900;28;20244;-68
2021/05/21 04:12:21;;;;;;;12.60;9.60;;;10.60;99.90;;;;;;5034442;28;20195;-67
2021/05/21 04:14:47;;;;;;;11.60;10.32;;;10.60;99.90;;;;;;5034124;28;20431;-68
2021/05/21 04:17:13;;;;;;;11.73;9.35;;;10.60;99.90;;;;;;5034321;28;20233;-69
2021/05/21 04:19:39;;;;;;;10.53;8.87;;;10.60;99.90;;;;;;5033985;28;20182;-69
2021/05/21 04:22:04;;;;;;;12.57;11.20;;;10.50;99.90;;;;;;5033730;28;20623;-68
2021/05/21 04:24:30;;;;;;;10.20;8.97;;;10.60;99.90;;;;;;5024739;28;20179;-69
2021/05/21 04:26:55;;;;;;;11.13;9.73;;;10.70;99.90;;;;;;5014269;28;20215;-68
2021/05/21 04:29:21;;;;;;;11.20;9.83;;;10.70;99.90;;;;;;5029219;28;20605;-68
2021/05/21 04:31:46;;;;;;;10.10;9.10;;;10.70;99.90;;;;;;4996493;28;20202;-67
2021/05/21 04:34:12;;;;;;;10.90;8.83;;;10.80;99.90;;;;;;5013978;28;20183;-70
2021/05/21 04:36:38;;;;;;;11.30;9.73;;;10.80;99.90;;;;;;5014207;28;20191;-69
2021/05/21 04:39:05;;;;;;;10.70;9.60;;;10.90;99.90;;;;;;5029217;28;20649;-69
2021/05/21 04:41:31;;;;;;;11.35;9.60;;;11.00;99.90;;;;;;4991317;28;20311;-70
2021/05/21 04:43:57;;;;;;;10.52;9.25;;;11.10;99.90;;;;;;5011406;28;20187;-70
2021/05/21 04:46:22;;;;;;;10.87;9.30;;;11.20;99.90;;;;;;4994633;28;20190;-67
2021/05/21 04:48:48;;;;;;;11.30;9.97;;;11.30;99.90;;;;;;5013758;28;20186;-69
2021/05/21 04:51:13;;;;;;;17.77;9.00;;;11.40;99.90;;;;;;4992370;28;20577;-67
2021/05/21 04:53:41;;;;;;;9.87;8.87;;;11.40;99.90;;;;;;5013094;28;20183;-69
2021/05/21 04:56:08;;;;;;;10.30;8.35;;;11.60;99.90;;;;;;5012491;28;20190;-69
2021/05/21 04:58:34;;;;;;;10.15;8.40;;;11.60;99.90;;;;;;5029001;28;20633;-68
2021/05/21 05:00:59;;;;;;;10.15;8.40;;;11.80;99.90;;;;;;5013345;28;20221;-67
2021/05/21 05:03:25;;;;;;;9.90;8.23;;;11.90;99.90;;;;;;4996024;28;20199;-68
2021/05/21 05:05:50;;;;;;;11.20;9.13;;;11.90;99.90;;;;;;4996073;28;20183;-70
2021/05/21 05:08:16;;;;;;;10.50;9.40;;;12.00;99.90;;;;;;4995941;28;20198;-67
2021/05/21 05:10:44;;;;;;;9.03;8.07;;;12.10;99.90;;;;;;5030666;28;20261;-69
2021/05/21 05:13:09;;;;;;;9.23;8.05;;;12.20;99.90;;;;;;5033303;28;20233;-67
2021/05/21 05:15:36;;;;;;;9.33;8.33;;;12.30;99.90;;;;;;5033218;28;20210;-69
2021/05/21 05:18:02;;;;;;;9.32;7.65;;;12.40;99.90;;;;;;5033328;28;20739;-68
2021/05/21 05:20:28;;;;;;;10.37;8.30;;;12.50;99.90;;;;;;5033331;28;20632;-68
2021/05/21 05:22:55;;;;;;;9.90;8.50;;;12.60;99.90;;;;;;5033223;28;20479;-69
2021/05/21 05:25:21;;;;;;;8.82;7.93;;;12.70;99.90;;;;;;5031736;28;20416;-68
2021/05/21 05:27:49;;;;;;;9.87;8.33;;;12.80;99.90;;;;;;5029250;28;20215;-67
2021/05/21 05:30:15;;;;;;;9.83;8.27;;;13.00;99.90;;;;;;5033078;28;20929;-68
2021/05/21 05:32:41;;;;;;;8.63;7.83;;;13.10;99.90;;;;;;5033454;28;20452;-67
2021/05/21 05:35:07;;;;;;;9.03;7.33;;;13.20;99.90;;;;;;5032512;28;20419;-70
2021/05/21 05:37:33;;;;;;;8.93;7.80;;;13.30;99.90;;;;;;5032410;28;20298;-69
2021/05/21 05:39:59;;;;;;;9.80;7.47;;;13.40;99.90;;;;;;5033084;28;20851;-68
2021/05/21 05:42:25;;;;;;;7.50;6.80;;;13.50;99.90;;;;;;5032422;28;20593;-69
2021/05/21 05:44:51;;;;;;;7.80;7.10;;;13.60;99.90;;;;;;5030860;28;20447;-68
2021/05/21 05:47:17;;;;;;;9.17;7.50;;;13.70;99.90;;;;;;5031042;28;20213;-67
2021/05/21 05:49:42;;;;;;;10.13;7.77;;;13.70;99.90;;;;;;5032850;28;20964;-69
2021/05/21 05:52:09;;;;;;;8.43;7.60;;;13.90;99.90;;;;;;5027290;28;20286;-69
2021/05/21 05:54:34;;;;;;;8.50;7.70;;;14.00;99.90;;;;;;5025212;28;20245;-69
2021/05/21 05:57:00;;;;;;;8.70;7.80;;;14.10;99.90;;;;;;5063386;28;20996;-69
2021/05/21 05:59:27;;;;;;;8.23;7.43;;;14.20;99.90;;;;;;5031393;28;20186;-70
2021/05/21 06:01:53;;;;;;;6.00;5.40;;;14.30;99.90;;;;;;5032088;28;20272;-68
2021/05/21 06:04:18;;;;;;;7.43;6.70;;;14.30;99.90;;;;;;5026363;28;20427;-68
2021/05/21 06:06:44;;;;;;;7.90;6.73;;;14.40;99.90;;;;;;5032246;28;20501;-69
2021/05/21 06:09:10;;;;;;;7.47;6.50;;;14.50;99.90;;;;;;5035655;28;20289;-69
2021/05/21 06:11:37;;;;;;;8.80;7.10;;;14.60;99.90;;;;;;5032941;28;20198;-68
2021/05/21 06:14:04;;;;;;;7.73;7.00;;;14.70;99.90;;;;;;5025538;28;20213;-68
2021/05/21 06:16:30;;;;;;;8.07;6.53;;;14.80;99.90;;;;;;5032560;28;20604;-68
2021/05/21 06:18:56;;;;;;;8.17;6.30;;;14.80;99.90;;;;;;5033704;28;20912;-71
2021/05/21 06:21:22;;;;;;;6.60;5.93;;;15.00;99.90;;;;;;5034147;28;20507;-69
2021/05/21 06:23:47;;;;;;;6.57;5.97;;;15.10;99.90;;;;;;5033186;28;20916;-71
2021/05/21 06:28:41;;;;;;;6.43;5.83;;;15.10;99.90;;;;;;5032120;28;20183;-68
2021/05/21 06:31:08;;;;;;;7.13;6.43;;;15.20;99.90;;;;;;5030328;28;20435;-67
2021/05/21 06:33:34;;;;;;;6.20;5.60;;;15.40;99.90;;;;;;5029374;28;20415;-69
2021/05/21 06:35:59;;;;;;;6.20;5.60;;;15.50;99.90;;;;;;5033874;28;20454;-68
2021/05/21 06:38:25;;;;;;;5.90;5.40;;;15.50;99.90;;;;;;5032298;28;20470;-68
2021/05/21 06:40:50;;;;;;;6.10;5.60;;;15.60;99.90;;;;;;5026489;28;20648;-71
2021/05/21 06:43:19;;;;;;;5.17;4.67;;;15.70;99.90;;;;;;5032602;28;20347;-70
2021/05/21 06:45:45;;;;;;;4.90;4.47;;;15.60;99.90;;;;;;5030759;28;20220;-68
2021/05/21 06:48:11;;;;;;;4.60;4.20;;;15.60;99.90;;;;;;5030384;28;20562;-70
2021/05/21 06:50:36;;;;;;;5.47;5.00;;;15.80;99.90;;;;;;5028845;28;20510;-68
2021/05/21 06:53:02;;;;;;;6.57;5.97;;;15.90;99.90;;;;;;5031890;28;20278;-69
2021/05/21 06:55:28;;;;;;;4.93;4.53;;;16.00;99.90;;;;;;5033095;28;20412;-70
2021/05/21 06:57:54;;;;;;;8.60;5.10;;;16.10;99.90;;;;;;5027461;28;20480;-70
2021/05/21 07:00:20;;;;;;;5.13;4.50;;;16.30;99.90;;;;;;5018142;28;20182;-71
2021/05/21 07:02:46;;;;;;;4.93;4.43;;;16.40;99.90;;;;;;5012920;28;20257;-70
2021/05/21 07:05:12;;;;;;;5.00;4.50;;;16.40;99.90;;;;;;5032497;28;20477;-71
2021/05/21 07:07:39;;;;;;;3.93;3.30;;;16.50;99.90;;;;;;5030117;28;20907;-68
2021/05/21 07:10:07;;;;;;;5.67;4.00;;;17.00;99.90;;;;;;5031129;28;20471;-68
2021/05/21 07:12:32;;;;;;;4.47;3.90;;;17.30;99.90;;;;;;5033561;28;20455;-71
2021/05/21 07:14:58;;;;;;;5.23;3.43;;;18.00;99.90;;;;;;5035038;28;20411;-71
2021/05/21 07:17:23;;;;;;;5.43;3.63;;;18.10;99.90;;;;;;5030526;28;20203;-70
2021/05/21 07:19:49;;;;;;;4.10;3.70;;;17.80;99.90;;;;;;5034338;28;20194;-69
2021/05/21 07:22:14;;;;;;;5.77;3.40;;;17.50;99.90;;;;;;5034458;28;20586;-70
2021/05/21 07:24:40;;;;;;;3.93;3.23;;;17.70;99.90;;;;;;5029795;28;20182;-70
2021/05/21 07:27:08;;;;;;;5.07;4.43;;;18.20;99.90;;;;;;5031137;28;20281;-70
2021/05/21 07:29:34;;;;;;;3.90;3.50;;;18.30;99.90;;;;;;5029705;28;20193;-70
2021/05/21 07:32:00;;;;;;;5.17;2.50;;;18.40;99.90;;;;;;5032636;28;20455;-70
2021/05/21 07:34:25;;;;;;;3.47;2.80;;;18.20;99.90;;;;;;5032503;28;20183;-69
2021/05/21 07:36:51;;;;;;;2.87;2.60;;;18.00;99.90;;;;;;5033176;28;20205;-71
2021/05/21 07:39:17;;;;;;;2.50;2.30;;;18.30;99.90;;;;;;5029034;28;20187;-69
2021/05/21 07:41:43;;;;;;;2.30;2.10;;;18.40;99.90;;;;;;5031060;28;20229;-69
2021/05/21 07:44:10;;;;;;;4.80;2.43;;;18.30;99.90;;;;;;5032263;28;20191;-71
2021/05/21 07:46:36;;;;;;;2.20;1.93;;;18.80;99.90;;;;;;5032479;28;20448;-68
2021/05/21 07:49:02;;;;;;;2.47;2.20;;;18.60;99.90;;;;;;5034134;28;20419;-71
2021/05/21 07:51:27;;;;;;;4.83;2.50;;;18.10;99.90;;;;;;5033492;28;20218;-70
2021/05/21 07:53:54;;;;;;;4.03;2.60;;;18.10;99.90;;;;;;5023577;28;20185;-70
2021/05/21 07:56:19;;;;;;;3.13;2.47;;;18.20;99.90;;;;;;5022813;28;20178;-68
2021/05/21 07:58:45;;;;;;;2.27;2.13;;;18.40;99.90;;;;;;5028616;28;20434;-68
2021/05/21 08:01:11;;;;;;;2.53;2.33;;;18.80;99.90;;;;;;5031374;28;20261;-69
2021/05/21 08:03:36;;;;;;;4.23;2.97;;;18.70;99.90;;;;;;5016639;28;20598;-71
2021/05/21 08:06:02;;;;;;;3.80;3.50;;;18.60;99.90;;;;;;5029479;28;20208;-69
2021/05/21 08:08:28;;;;;;;4.40;2.20;;;18.90;99.90;;;;;;5030805;28;20217;-68
2021/05/21 08:10:59;;;;;;;3.00;2.70;;;19.10;99.90;;;;;;5033218;28;20472;-69
2021/05/21 08:13:25;;;;;;;2.33;2.10;;;19.20;99.90;;;;;;5033000;28;21002;-70
2021/05/21 08:15:51;;;;;;;2.50;2.30;;;19.10;99.90;;;;;;5031706;28;20432;-67
2021/05/21 08:18:17;;;;;;;2.87;2.20;;;19.40;99.90;;;;;;5033019;28;20542;-68
2021/05/21 08:20:43;;;;;;;2.50;2.30;;;19.30;99.90;;;;;;5033770;28;20412;-68
2021/05/21 08:23:10;;;;;;;3.37;2.30;;;19.70;99.90;;;;;;5029382;28;20834;-68
2021/05/21 08:25:36;;;;;;;2.70;2.47;;;19.50;99.90;;;;;;5031838;28;20461;-68
2021/05/21 08:28:01;;;;;;;2.10;1.93;;;18.90;99.90;;;;;;5025813;28;20454;-68
2021/05/21 08:30:27;;;;;;;2.70;2.50;;;19.40;99.90;;;;;;5021072;28;20258;-68
2021/05/21 08:32:53;;;;;;;3.83;2.97;;;19.70;99.90;;;;;;5029505;28;20562;-71
2021/05/21 08:35:19;;;;;;;5.07;2.30;;;19.70;99.90;;;;;;5031352;28;20664;-69
2021/05/21 08:37:45;;;;;;;3.73;2.43;;;19.60;99.90;;;;;;5033721;28;20243;-70
2021/05/21 08:40:19;;;;;;;2.80;2.50;;;19.40;99.90;;;;;;5029914;28;21779;-68
2021/05/21 08:42:45;;;;;;;2.50;2.30;;;19.60;99.90;;;;;;5028911;28;20576;-69
2021/05/21 08:45:13;;;;;;;3.10;2.50;;;19.70;99.90;;;;;;5031191;28;20795;-71
2021/05/21 08:47:38;;;;;;;2.50;2.30;;;20.20;99.90;;;;;;5031499;28;20844;-68
2021/05/21 08:50:10;;;;;;;2.70;2.30;;;20.40;99.90;;;;;;5031316;28;20442;-70
2021/05/21 08:52:35;;;;;;;3.60;2.70;;;20.30;99.90;;;;;;5032998;28;20603;-67
2021/05/21 08:55:02;;;;;;;2.70;2.50;;;20.40;99.90;;;;;;5032081;28;20455;-69
2021/05/21 08:57:31;;;;;;;2.43;2.23;;;19.60;99.90;;;;;;5029735;28;20283;-71
2021/05/21 08:59:57;;;;;;;4.67;2.57;;;19.50;99.90;;;;;;5026684;28;20438;-68
2021/05/21 09:02:25;;;;;;;3.20;2.90;;;20.10;99.90;;;;;;5025949;28;20487;-67
2021/05/21 09:04:59;;;;;;;2.50;2.40;;;20.20;99.90;;;;;;5031362;28;20432;-70
2021/05/21 09:07:26;;;;;;;2.60;2.40;;;20.20;99.90;;;;;;5030931;28;20450;-70
2021/05/21 09:09:53;;;;;;;4.63;2.50;;;19.50;99.90;;;;;;5022047;28;20507;-70
2021/05/21 09:12:19;;;;;;;2.60;2.40;;;20.20;99.90;;;;;;4993590;28;20479;-70
2021/05/21 09:15:10;;;;;;;2.90;2.53;;;20.30;99.90;;;;;;5018066;28;20440;-71
2021/05/21 09:17:36;;;;;;;2.40;2.20;;;20.20;99.90;;;;;;5007378;28;21184;-68
2021/05/21 09:20:03;;;;;;;2.63;2.43;;;20.00;99.90;;;;;;5012012;28;20448;-71
2021/05/21 09:22:29;;;;;;;2.43;2.23;;;20.30;99.90;;;;;;4993063;28;20480;-69
2021/05/21 09:24:55;;;;;;;3.00;2.70;;;20.30;99.90;;;;;;5012962;28;20778;-71
2021/05/21 09:27:21;;;;;;;3.60;2.43;;;20.80;99.90;;;;;;5005465;28;20216;-70
2021/05/21 09:29:57;;;;;;;3.50;3.20;;;21.60;99.90;;;;;;5029637;28;20189;-69
2021/05/21 09:32:34;;;;;;;3.70;2.37;;;21.70;99.90;;;;;;5002252;28;20498;-69
2021/05/21 09:35:03;;;;;;;2.80;2.30;;;21.80;99.90;;;;;;5017792;28;20453;-66
2021/05/21 09:37:29;;;;;;;6.00;3.30;;;20.60;99.90;;;;;;4997741;28;20456;-69
2021/05/21 09:40:08;;;;;;;2.80;2.60;;;20.50;99.90;;;;;;5014772;28;20506;-67
2021/05/21 09:42:55;;;;;;;3.73;2.60;;;20.10;99.90;;;;;;5015420;28;20237;-69
2021/05/21 09:45:47;;;;;;;2.73;2.53;;;20.30;99.90;;;;;;4999690;28;21064;-66
2021/05/21 09:48:12;;;;;;;3.10;2.90;;;20.40;99.90;;;;;;5011648;28;20842;-69
2021/05/21 09:50:49;;;;;;;4.80;2.87;;;20.20;99.90;;;;;;5013481;28;20421;-66
2021/05/21 09:53:24;;;;;;;3.63;3.27;;;20.20;99.90;;;;;;5013083;28;20207;-67
2021/05/21 09:56:00;;;;;;;4.63;2.73;;;20.50;99.90;;;;;;4994899;28;20904;-67
2021/05/21 09:58:32;;;;;;;2.67;2.47;;;20.40;99.90;;;;;;5012920;28;20462;-67
2021/05/21 10:01:21;;;;;;;3.30;3.00;;;20.30;99.90;;;;;;5013337;28;20958;-69
2021/05/21 10:03:55;;;;;;;3.07;2.60;;;20.80;99.90;;;;;;4993915;28;20524;-67
2021/05/21 10:06:28;;;;;;;2.90;2.70;;;21.20;99.90;;;;;;5010510;28;20436;-69
2021/05/21 10:08:59;;;;;;;3.50;3.03;;;20.80;99.90;;;;;;5013402;28;20435;-67
2021/05/21 10:11:25;;;;;;;2.83;2.63;;;20.60;99.90;;;;;;5034839;28;20439;-69
2021/05/21 10:13:51;;;;;;;2.50;2.30;;;21.00;99.90;;;;;;5067213;28;20419;-69
2021/05/21 10:16:18;;;;;;;3.43;3.13;;;20.80;99.90;;;;;;5030614;28;20435;-67
2021/05/21 10:18:45;;;;;;;5.43;2.90;;;20.50;99.90;;;;;;5033065;28;20470;-67
2021/05/21 10:21:12;;;;;;;2.00;1.50;;;20.80;99.90;;;;;;5059462;28;20521;-67
2021/05/21 10:23:46;;;;;;;1.93;1.80;;;21.30;99.90;;;;;;5033843;28;20424;-67
2021/05/21 10:26:15;;;;;;;2.60;2.07;;;21.30;99.90;;;;;;5061466;28;20438;-67
2021/05/21 10:28:44;;;;;;;5.60;2.70;;;21.90;99.40;;;;;;5033427;28;20428;-69
2021/05/21 10:31:12;;;;;;;2.80;2.60;;;21.70;99.70;;;;;;5034704;28;20428;-67
2021/05/21 10:33:40;;;;;;;2.23;2.03;;;22.20;99.90;;;;;;5034819;28;20423;-67
2021/05/21 10:36:30;;;;;;;1.97;1.87;;;21.00;99.60;;;;;;5021269;28;20489;-67
2021/05/21 10:39:05;;;;;;;2.57;2.30;;;21.60;99.90;;;;;;5028887;28;21001;-69
2021/05/21 10:41:31;;;;;;;3.60;2.20;;;21.50;99.90;;;;;;5026866;28;20505;-70
2021/05/21 10:43:59;;;;;;;2.80;2.60;;;21.10;99.70;;;;;;5032268;28;20431;-67
2021/05/21 10:46:26;;;;;;;4.17;2.23;;;21.00;99.90;;;;;;5032971;28;20428;-68
2021/05/21 10:48:57;;;;;;;3.00;2.20;;;20.80;99.90;;;;;;5059443;28;20432;-68
2021/05/21 10:51:25;;;;;;;3.67;2.73;;;21.40;99.90;;;;;;5027742;28;20462;-67
2021/05/21 10:54:23;;;;;;;2.77;2.57;;;21.10;99.90;;;;;;5031152;28;20431;-71
2021/05/21 10:56:49;;;;;;;3.10;2.90;;;20.60;99.90;;;;;;5010533;28;20972;-69
2021/05/21 10:59:14;;;;;;;3.33;1.90;;;20.90;99.90;;;;;;5028304;28;20463;-71
2021/05/21 11:01:45;;;;;;;2.80;2.27;;;20.50;99.90;;;;;;5030582;28;20687;-69
2021/05/21 11:04:12;;;;;;;4.30;2.40;;;20.70;99.90;;;;;;5024501;28;20188;-70
2021/05/21 11:06:50;;;;;;;2.33;2.13;;;20.70;99.90;;;;;;5032890;28;20506;-68
2021/05/21 11:09:26;;;;;;;2.30;2.20;;;20.70;99.90;;;;;;5030198;28;20494;-69
2021/05/21 11:12:08;;;;;;;2.93;2.27;;;21.00;99.90;;;;;;5031553;28;20543;-68
2021/05/21 11:14:48;;;;;;;2.17;1.87;;;21.10;99.90;;;;;;5032843;28;20435;-70
2021/05/21 11:17:24;;;;;;;1.87;1.77;;;22.00;99.30;;;;;;5028677;28;20486;-69
2021/05/21 11:19:58;;;;;;;3.63;2.23;;;21.50;98.60;;;;;;5032115;28;20916;-68
2021/05/21 11:22:27;;;;;;;1.80;1.70;;;21.10;96.70;;;;;;5033669;28;20487;-69
2021/05/21 11:24:58;;;;;;;2.33;2.03;;;20.90;98.50;;;;;;5023049;28;20446;-70
2021/05/21 11:27:27;;;;;;;3.90;2.43;;;21.00;97.30;;;;;;5032735;28;20463;-67
2021/05/21 11:29:53;;;;;;;2.40;2.20;;;22.00;97.50;;;;;;5032239;28;20432;-69
2021/05/21 11:32:21;;;;;;;2.20;2.10;;;22.10;98.30;;;;;;5034487;28;20452;-68
2021/05/21 11:34:48;;;;;;;2.43;1.90;;;21.70;97.40;;;;;;5030154;28;20530;-70
2021/05/21 11:37:34;;;;;;;1.90;1.80;;;22.10;97.70;;;;;;5030718;28;20868;-67
2021/05/21 11:40:05;;;;;;;1.93;1.80;;;22.70;98.20;;;;;;5032027;28;20454;-71
2021/05/21 11:42:30;;;;;;;2.03;1.90;;;22.70;95.10;;;;;;5032441;28;20511;-68
2021/05/21 11:44:57;;;;;;;2.37;2.00;;;22.10;95.20;;;;;;5029966;28;20550;-69
2021/05/21 11:47:24;;;;;;;2.40;2.20;;;22.40;95.10;;;;;;5062391;28;20209;-68
2021/05/21 11:49:54;;;;;;;1.97;1.87;;;21.90;95.90;;;;;;5018323;28;20965;-68
2021/05/21 11:52:20;;;;;;;1.80;1.70;;;21.70;95.40;;;;;;5029330;28;20546;-71
2021/05/21 11:54:45;;;;;;;2.13;1.80;;;22.00;94.70;;;;;;5032216;28;21012;-69
2021/05/21 11:57:16;;;;;;;1.67;1.57;;;22.20;96.30;;;;;;5034374;28;20819;-68
2021/05/21 11:59:42;;;;;;;3.43;2.10;;;22.30;96.00;;;;;;5026176;28;20210;-68
2021/05/21 12:02:08;;;;;;;1.83;1.73;;;22.60;96.80;;;;;;5030146;28;20565;-70
2021/05/21 12:04:39;;;;;;;2.83;1.40;;;23.20;93.10;;;;;;5028773;28;20559;-69
2021/05/21 12:07:05;;;;;;;1.90;1.57;;;22.90;91.00;;;;;;5023925;28;20514;-69
2021/05/21 12:09:32;;;;;;;1.63;1.53;;;22.90;93.10;;;;;;5028198;28;20555;-69
2021/05/21 12:11:59;;;;;;;2.27;1.80;;;23.00;90.80;;;;;;5021307;28;20463;-69
2021/05/21 12:14:27;;;;;;;1.80;1.70;;;23.50;94.10;;;;;;5031450;28;20514;-69
2021/05/21 12:16:54;;;;;;;2.47;1.80;;;23.20;90.70;;;;;;5028700;28;20461;-69
2021/05/21 12:19:22;;;;;;;1.80;1.70;;;22.80;91.00;;;;;;5052423;28;20800;-71
2021/05/21 12:21:50;;;;;;;1.30;1.20;;;22.80;92.30;;;;;;5030470;28;20483;-72
2021/05/21 12:24:27;;;;;;;1.53;1.43;;;22.20;93.70;;;;;;5030389;28;20432;-71
2021/05/21 12:26:53;;;;;;;1.63;1.53;;;22.30;93.90;;;;;;5030113;28;20847;-70
2021/05/21 12:29:21;;;;;;;1.60;1.50;;;22.20;94.30;;;;;;5020393;28;20421;-70
2021/05/21 12:31:50;;;;;;;2.10;1.50;;;21.70;92.20;;;;;;5032737;28;20897;-69
2021/05/21 12:34:17;;;;;;;1.90;1.63;;;21.80;93.30;;;;;;5031966;28;20431;-71
2021/05/21 12:36:43;;;;;;;1.80;1.70;;;22.30;92.60;;;;;;5031777;28;20886;-70
2021/05/21 12:39:10;;;;;;;3.57;1.87;;;22.90;92.00;;;;;;5031320;28;20578;-72
2021/05/21 12:41:41;;;;;;;3.03;2.03;;;22.70;93.80;;;;;;5030918;28;20685;-69
2021/05/21 12:44:12;;;;;;;1.70;1.60;;;22.80;92.90;;;;;;5030536;28;20886;-71
2021/05/21 12:46:47;;;;;;;2.67;1.50;;;22.60;93.10;;;;;;5030606;28;20457;-70
2021/05/21 12:49:14;;;;;;;2.20;1.90;;;23.20;92.60;;;;;;5017686;28;20527;-69